Strona główna
METAR-TAF:

METAR-TAF

Lotnisko :

Port lotniczy Taba

Taba, Egipt

Szerokość geograficzna: 29-35-57N, Długość geograficzna: 034-46-36E, wysokość: 749 m

METAR: brakujący

czas: 17:23 (15:23 UTC)

Prognoza

Raport powstał 4 godziny i 23 minut temu, godzina 11:00 UTC
Prognoza ważna od 28 godzina 12 UTC do 29 godzina 18 UTC
Wiatr 15 kt od północ
Widzialność: 6000 m

TAF: HETB 281100Z 2812/2918 36015KT 6000 NSC

Obserwacja i prognoza pogody dla ponad 4000 lotnisk (raport METAR i TAF).

Dostępne stacje oznaczono żółtymi i czerwonymi punktami na mapie.

Najedź kursorem aby zobaczyć nazwę stacji.

Kliknij aby zobaczyć obserwacje i prognozy pogody.

Aby zmienić mapę: kliknij na zielony przycisk z czarnym krzyżykiem, aby powiększyć; na zielony przycisk z myślnikiem, aby pomniejszyć; na zielone strzałki, aby przejść do map sąsiednich.


METAR-TAF: